Time;durP1;ratioP1;P1;durP2;ratioP2;P2;SDS_P1;SDS_P2;PMS_P1;PMS_P2;Temp;Humidity;BMP_temperature;BMP_pressure;BME280_temperature;BME280_humidity;BME280_pressure;Samples;Min_cycle;Max_cycle;Signal;HPM_P1;HPM_P2
2023/11/08 00:02:22;;;;;;;3.83;0.80;;;;;;;10.21;74.78;100183.13;10420105;28;20064;-64
2023/11/08 00:07:24;;;;;;;4.00;0.60;;;;;;;10.18;74.41;100184.31;10413496;28;20049;-66
2023/11/08 00:12:25;;;;;;;7.72;0.60;;;;;;;10.22;74.61;100182.97;10433644;28;20113;-63
2023/11/08 00:17:27;;;;;;;7.10;0.60;;;;;;;10.25;74.73;100184.47;10423850;28;20147;-63
2023/11/08 00:22:28;;;;;;;3.72;1.13;;;;;;;10.29;74.37;100185.78;10416631;28;20076;-63
2023/11/08 00:27:30;;;;;;;3.85;0.50;;;;;;;10.29;74.16;100180.41;10420582;28;20048;-65
2023/11/08 00:32:32;;;;;;;4.47;0.75;;;;;;;10.38;74.00;100179.34;10417659;28;20758;-64
2023/11/08 00:37:33;;;;;;;2.65;0.70;;;;;;;10.38;74.07;100173.97;10415292;28;20493;-64
2023/11/08 00:42:35;;;;;;;4.00;0.70;;;;;;;10.43;73.76;100190.41;10416970;28;20140;-62
2023/11/08 00:47:37;;;;;;;5.47;0.45;;;;;;;10.38;73.83;100189.28;10417688;28;20053;-64
2023/11/08 00:52:39;;;;;;;2.28;0.57;;;;;;;10.40;73.29;100188.06;10419347;28;20055;-61
2023/11/08 00:57:41;;;;;;;6.78;0.70;;;;;;;10.44;73.37;100186.69;10418772;28;20331;-62
2023/11/08 01:02:44;;;;;;;8.63;0.95;;;;;;;10.47;73.55;100191.72;10414984;28;20071;-63
2023/11/08 01:07:45;;;;;;;3.15;1.15;;;;;;;10.43;73.43;100198.47;10418037;28;20120;-62
2023/11/08 01:12:50;;;;;;;9.38;0.60;;;;;;;10.45;73.19;100201.81;10417736;28;20033;-62
2023/11/08 01:17:51;;;;;;;3.60;0.63;;;;;;;10.37;73.25;100218.00;10417713;28;20084;-61
2023/11/08 01:22:53;;;;;;;8.25;0.47;;;;;;;10.42;72.98;100215.59;10413754;28;20037;-62
2023/11/08 01:27:54;;;;;;;5.38;1.85;;;;;;;10.41;73.20;100221.19;10417336;28;20052;-66
2023/11/08 01:32:57;;;;;;;0.85;0.38;;;;;;;10.50;73.02;100209.34;10417299;28;20242;-63
2023/11/08 01:37:58;;;;;;;3.38;0.65;;;;;;;10.48;73.05;100216.75;10413135;28;20049;-63
2023/11/08 01:43:00;;;;;;;4.68;1.00;;;;;;;10.48;73.16;100203.31;10414930;28;20052;-62
2023/11/08 01:48:02;;;;;;;8.02;0.68;;;;;;;10.49;73.07;100210.38;10414215;28;20041;-62
2023/11/08 01:53:03;;;;;;;5.32;0.63;;;;;;;10.51;72.86;100202.97;10412406;28;20051;-61
2023/11/08 01:58:05;;;;;;;2.28;0.40;;;;;;;10.55;72.97;100219.56;10416779;28;20037;-62
2023/11/08 02:03:07;;;;;;;3.25;0.50;;;;;;;10.52;73.07;100212.69;10415964;28;20068;-64
2023/11/08 02:08:10;;;;;;;3.92;0.50;;;;;;;10.45;73.11;100222.50;10417044;28;20128;-63
2023/11/08 02:13:12;;;;;;;5.15;0.65;;;;;;;10.49;73.00;100211.19;10393321;28;20811;-61
2023/11/08 02:18:15;;;;;;;6.35;0.52;;;;;;;10.51;73.21;100214.53;10416464;28;20508;-64
2023/11/08 02:23:16;;;;;;;3.03;0.68;;;;;;;10.57;73.31;100218.38;10394057;28;20476;-62
2023/11/08 02:28:19;;;;;;;5.03;0.60;;;;;;;10.47;73.08;100220.47;10415626;28;20076;-63
2023/11/08 02:33:22;;;;;;;2.83;0.60;;;;;;;10.50;72.84;100212.03;10395155;28;20049;-63
2023/11/08 02:38:24;;;;;;;5.93;1.40;;;;;;;10.49;72.85;100208.50;10402072;28;20075;-63
2023/11/08 02:43:25;;;;;;;3.25;0.60;;;;;;;10.47;73.04;100201.66;10419868;28;20365;-63
2023/11/08 02:48:28;;;;;;;1.55;0.50;;;;;;;10.40;73.27;100198.81;10408850;28;20049;-63
2023/11/08 02:53:29;;;;;;;5.22;0.60;;;;;;;10.38;72.85;100214.28;10417879;28;20099;-63
2023/11/08 02:58:31;;;;;;;3.08;0.40;;;;;;;10.32;73.07;100212.31;10362008;28;20057;-67
2023/11/08 03:03:32;;;;;;;2.13;0.50;;;;;;;10.31;73.17;100219.53;10379867;28;20053;-63
2023/11/08 03:08:34;;;;;;;3.63;0.60;;;;;;;10.28;72.84;100219.03;10379633;28;20050;-63
2023/11/08 03:13:35;;;;;;;3.45;0.60;;;;;;;10.30;72.75;100220.53;10379716;28;20060;-66
2023/11/08 03:18:36;;;;;;;3.53;0.80;;;;;;;10.34;73.17;100220.19;10363790;28;20046;-65
2023/11/08 03:23:38;;;;;;;7.00;0.90;;;;;;;10.35;72.95;100217.34;10380658;28;20048;-64
2023/11/08 03:28:39;;;;;;;4.18;0.80;;;;;;;10.38;73.04;100222.34;10398474;28;20396;-66
2023/11/08 03:33:41;;;;;;;2.83;0.55;;;;;;;10.35;72.83;100232.59;10394746;28;20085;-62
2023/11/08 03:38:42;;;;;;;3.92;0.80;;;;;;;10.31;72.72;100240.22;10401825;28;20059;-64
2023/11/08 03:43:44;;;;;;;2.92;0.70;;;;;;;10.30;73.05;100243.91;10381707;28;20045;-61
2023/11/08 03:48:47;;;;;;;4.53;0.98;;;;;;;10.35;73.01;100251.41;10374651;28;20050;-63
2023/11/08 03:53:48;;;;;;;3.13;0.50;;;;;;;10.42;72.38;100247.84;10357408;28;20457;-64
2023/11/08 03:58:50;;;;;;;1.15;0.40;;;;;;;10.40;72.61;100251.72;10377532;28;20064;-66
2023/11/08 04:03:51;;;;;;;2.55;0.50;;;;;;;10.41;72.42;100256.13;10382065;28;20389;-63
2023/11/08 04:08:53;;;;;;;4.43;0.88;;;;;;;10.51;72.28;100262.91;10381481;28;20116;-63
2023/11/08 04:13:55;;;;;;;3.42;0.98;;;;;;;10.53;72.59;100257.38;10379533;28;20107;-66
2023/11/08 04:18:56;;;;;;;4.10;0.70;;;;;;;10.50;72.58;100268.47;10379689;28;20438;-65
2023/11/08 04:23:58;;;;;;;3.85;0.40;;;;;;;10.54;72.58;100263.56;10377265;28;20044;-64
2023/11/08 04:29:00;;;;;;;1.80;0.50;;;;;;;10.50;72.48;100265.78;10377724;28;20041;-62
2023/11/08 04:34:01;;;;;;;4.13;0.40;;;;;;;10.50;72.05;100265.78;10378115;28;20401;-65
2023/11/08 04:39:03;;;;;;;1.17;0.40;;;;;;;10.50;72.42;100282.75;10377311;28;20049;-65
2023/11/08 04:44:05;;;;;;;4.90;0.30;;;;;;;10.49;72.44;100278.38;10380754;28;20110;-65
2023/11/08 04:49:08;;;;;;;4.55;0.50;;;;;;;10.43;72.38;100278.25;10390162;23;20128;-80
2023/11/08 04:54:09;;;;;;;2.70;0.65;;;;;;;10.44;71.94;100291.50;10393160;28;20103;-79
2023/11/08 04:59:12;;;;;;;2.72;0.45;;;;;;;10.47;71.96;100291.16;10380473;28;20080;-80
2023/11/08 05:04:15;;;;;;;4.40;0.40;;;;;;;10.44;72.18;100299.56;10375844;28;20070;-80
2023/11/08 05:09:17;;;;;;;6.88;1.45;;;;;;;10.36;72.16;100299.63;10355261;28;20065;-80
2023/11/08 05:14:19;;;;;;;2.45;0.50;;;;;;;10.25;72.27;100300.81;10391635;28;20045;-80
2023/11/08 05:19:20;;;;;;;2.85;0.65;;;;;;;10.28;72.09;100303.13;10379637;28;20103;-80
2023/11/08 05:24:22;;;;;;;8.43;0.82;;;;;;;10.31;72.36;100296.63;10386965;28;20065;-85
2023/11/08 05:29:25;;;;;;;5.65;0.85;;;;;;;10.25;72.14;100281.19;10348191;28;20049;-85
2023/11/08 05:34:26;;;;;;;5.00;0.70;;;;;;;10.21;72.39;100271.78;10383645;28;20064;-85
2023/11/08 05:39:28;;;;;;;3.45;0.85;;;;;;;10.09;72.37;100277.56;10378118;28;20057;-84
2023/11/08 05:44:30;;;;;;;4.32;0.80;;;;;;;10.06;72.64;100287.81;10385132;28;20054;-86
2023/11/08 05:49:31;;;;;;;3.22;0.52;;;;;;;10.00;72.33;100275.09;10396515;28;20057;-84
2023/11/08 05:54:34;;;;;;;2.55;0.70;;;;;;;9.96;72.36;100279.13;10421362;28;20041;-83
2023/11/08 05:59:37;;;;;;;5.57;1.13;;;;;;;9.90;72.57;100283.34;10419172;28;20059;-84
2023/11/08 06:04:38;;;;;;;2.28;0.80;;;;;;;9.89;72.58;100290.56;10398549;28;20109;-87
2023/11/08 06:09:43;;;;;;;3.78;0.80;;;;;;;9.89;72.31;100287.00;10424792;28;20042;-85
2023/11/08 06:14:45;;;;;;;7.40;1.42;;;;;;;9.89;72.53;100295.94;10421226;28;20061;-88
2023/11/08 06:19:47;;;;;;;4.53;0.80;;;;;;;9.90;72.57;100305.66;10428307;28;20377;-84
2023/11/08 06:24:49;;;;;;;5.45;0.95;;;;;;;9.93;72.25;100304.44;10438239;28;20051;-90
2023/11/08 06:29:51;;;;;;;4.40;1.58;;;;;;;9.89;72.75;100327.28;10462890;28;20041;-84
2023/11/08 06:35:00;;;;;;;7.35;1.80;;;;;;;10.00;72.61;100336.84;10432581;28;20037;-83
2023/11/08 06:40:04;;;;;;;8.00;2.35;;;;;;;10.13;72.04;100337.16;10437058;28;20037;-84
2023/11/08 06:45:07;;;;;;;3.80;1.98;;;;;;;10.18;72.44;100331.25;10420825;28;20073;-83
2023/11/08 06:50:10;;;;;;;4.35;1.52;;;;;;;10.18;72.26;100341.97;10438013;28;20076;-86
2023/11/08 06:55:15;;;;;;;8.15;2.30;;;;;;;10.23;72.12;100348.50;10416886;28;20068;-85
2023/11/08 07:00:35;;;;;;;6.50;1.80;;;;;;;10.30;72.18;100357.56;10436760;28;20099;-86
2023/11/08 07:05:37;;;;;;;3.38;1.73;;;;;;;10.30;72.66;100354.88;10442481;28;20113;-84
2023/11/08 07:10:40;;;;;;;5.00;1.00;;;;;;;10.38;72.27;100361.25;10447242;28;20041;-78
2023/11/08 07:15:42;;;;;;;4.10;1.05;;;;;;;10.63;71.97;100365.50;10429169;28;20044;-80
2023/11/08 07:20:45;;;;;;;7.63;1.30;;;;;;;10.76;71.16;100346.09;10440825;28;20483;-83
2023/11/08 07:25:47;;;;;;;6.75;1.20;;;;;;;10.80;71.69;100360.88;10435031;28;20041;-83
2023/11/08 07:30:48;;;;;;;4.03;0.95;;;;;;;10.99;71.26;100364.09;10460291;28;20045;-84
2023/11/08 07:35:50;;;;;;;3.35;1.05;;;;;;;11.13;70.64;100376.78;10451733;23;20139;-60
2023/11/08 07:40:51;;;;;;;5.60;1.10;;;;;;;11.30;70.58;100382.88;10445578;28;20387;-60
2023/11/08 07:45:53;;;;;;;8.15;1.52;;;;;;;11.34;70.18;100373.44;10432773;28;20045;-60
2023/11/08 07:50:54;;;;;;;16.83;1.83;;;;;;;11.43;70.13;100360.75;10470906;28;20068;-58
2023/11/08 07:55:56;;;;;;;46.03;18.60;;;;;;;11.41;70.46;100382.44;10430757;28;20060;-60
2023/11/08 08:01:00;;;;;;;8.23;1.13;;;;;;;11.47;70.31;100379.06;10428790;28;20055;-59
2023/11/08 08:06:04;;;;;;;3.72;0.65;;;;;;;11.49;70.28;100382.41;10457512;28;20107;-59
2023/11/08 08:11:12;;;;;;;5.50;0.80;;;;;;;11.51;69.88;100385.75;10472987;28;20044;-57
2023/11/08 08:16:19;;;;;;;4.90;1.23;;;;;;;11.56;69.79;100384.38;10461734;28;20049;-59
2023/11/08 08:21:21;;;;;;;;;;;;;;;11.78;69.59;100388.03;10426006;28;20053;-62
2023/11/08 08:26:25;;;;;;;6.38;0.80;;;;;;;11.81;69.48;100393.03;10441877;28;19936;-64
2023/11/08 08:31:29;;;;;;;12.68;1.75;;;;;;;11.89;69.68;100393.00;10437043;28;20048;-63
2023/11/08 08:36:31;;;;;;;37.85;19.63;;;;;;;12.16;68.58;100394.22;10439617;28;20048;-62
2023/11/08 08:41:33;;;;;;;4.82;0.80;;;;;;;12.37;68.23;100400.75;10480319;28;20040;-61
2023/11/08 08:46:36;;;;;;;3.88;0.80;;;;;;;12.41;67.83;100408.28;10484012;28;20420;-67
2023/11/08 08:51:38;;;;;;;5.28;0.82;;;;;;;12.26;68.50;100415.50;10485310;28;20524;-62
2023/11/08 08:56:40;;;;;;;3.15;0.57;;;;;;;12.16;68.22;100425.72;10477302;28;20074;-62
2023/11/08 09:01:42;;;;;;;4.05;0.80;;;;;;;12.26;67.62;100408.28;10478615;28;20515;-62
2023/11/08 09:06:43;;;;;;;4.45;0.70;;;;;;;12.17;67.77;100416.66;10480092;28;20047;-62
2023/11/08 09:11:44;;;;;;;4.32;0.50;;;;;;;12.12;67.27;100427.13;10482354;28;20044;-68
2023/11/08 09:16:46;;;;;;;3.42;0.60;;;;;;;11.92;66.60;100416.88;10482993;28;20387;-62
2023/11/08 09:21:48;;;;;;;4.85;0.70;;;;;;;12.08;66.26;100423.97;10484570;28;20045;-62
2023/11/08 09:26:49;;;;;;;5.60;0.68;;;;;;;12.03;65.90;100429.91;10480367;28;20056;-60
2023/11/08 09:31:51;;;;;;;2.65;0.55;;;;;;;12.03;66.08;100419.13;10475646;28;20049;-61
2023/11/08 09:36:52;;;;;;;1.75;0.35;;;;;;;12.07;65.51;100420.44;10461316;28;20056;-63
2023/11/08 09:41:56;;;;;;;2.75;0.40;;;;;;;12.16;65.32;100414.94;10465914;28;20045;-63
2023/11/08 09:46:58;;;;;;;3.53;0.28;;;;;;;12.20;64.72;100421.66;10472361;28;20048;-61
2023/11/08 09:51:59;;;;;;;7.68;0.40;;;;;;;12.29;64.63;100421.38;10467758;28;20052;-61
2023/11/08 09:57:01;;;;;;;3.45;0.35;;;;;;;12.32;64.28;100422.03;10469980;28;20047;-61
2023/11/08 10:02:06;;;;;;;4.25;0.47;;;;;;;12.35;63.81;100421.66;10473800;28;20049;-61
2023/11/08 10:07:08;;;;;;;3.33;0.30;;;;;;;12.35;63.59;100400.94;10480541;28;20136;-62
2023/11/08 10:12:09;;;;;;;4.60;0.40;;;;;;;12.36;63.72;100405.31;10472131;28;20445;-63
2023/11/08 10:17:11;;;;;;;4.50;0.35;;;;;;;12.39;63.50;100399.53;10472554;28;20747;-61
2023/11/08 10:22:32;;;;;;;3.65;0.40;;;;;;;12.32;63.13;100377.03;10465647;28;20037;-62
2023/11/08 10:27:35;;;;;;;1.90;0.30;;;;;;;12.42;63.17;100383.00;10450490;28;20044;-63
2023/11/08 10:32:37;;;;;;;3.05;0.30;;;;;;;12.48;63.12;100376.84;10412653;28;20450;-65
2023/11/08 10:37:39;;;;;;;3.97;0.40;;;;;;;12.63;63.00;100362.50;10442905;28;20041;-63
2023/11/08 10:42:49;;;;;;;5.75;0.30;;;;;;;12.92;62.57;100363.47;10459315;28;20065;-65
2023/11/08 10:47:51;;;;;;;2.00;0.20;;;;;;;13.20;62.52;100353.56;10457333;28;20055;-62
2023/11/08 10:52:53;;;;;;;2.13;0.20;;;;;;;13.27;62.36;100350.94;10455986;28;20044;-62
2023/11/08 10:58:02;;;;;;;2.70;0.20;;;;;;;13.37;61.71;100364.97;10466171;28;20040;-61
2023/11/08 11:03:11;;;;;;;3.78;0.20;;;;;;;13.23;61.60;100369.38;10476436;28;20044;-62
2023/11/08 11:08:18;;;;;;;3.10;0.43;;;;;;;13.23;61.86;100360.44;10457723;28;20048;-62
2023/11/08 11:13:59;;;;;;;3.65;0.77;;;;;;;13.09;61.90;100367.56;10450876;28;20136;-61
2023/11/08 11:19:10;;;;;;;1.63;0.20;;;;;;;13.16;61.69;100352.28;10439728;28;20439;-62
2023/11/08 11:24:40;;;;;;;4.75;0.30;;;;;;;13.25;61.85;100343.03;10412880;28;20102;-63
2023/11/08 11:29:42;;;;;;;2.08;0.28;;;;;;;13.38;61.25;100353.13;10460199;28;20037;-61
2023/11/08 11:34:44;;;;;;;0.43;0.32;;;;;;;13.66;60.84;100353.19;10440391;28;20375;-61
2023/11/08 11:39:51;;;;;;;1.52;0.20;;;;;;;13.71;60.96;100349.06;10420509;28;20047;-62
2023/11/08 11:44:56;;;;;;;1.23;0.20;;;;;;;13.59;61.11;100336.06;10470542;28;20049;-61
2023/11/08 11:50:00;;;;;;;3.83;0.43;;;;;;;13.67;60.92;100330.53;10443281;28;20131;-60
2023/11/08 11:55:08;;;;;;;1.17;0.40;;;;;;;13.61;61.27;100331.31;10478100;28;20072;-63
2023/11/08 12:00:10;;;;;;;;;;;;;;;13.44;61.91;100328.06;10484685;28;20049;-64
2023/11/08 12:05:12;;;;;;;8.15;0.32;;;;;;;13.50;61.59;100315.63;10482862;28;19935;-61
2023/11/08 12:10:18;;;;;;;1.55;0.20;;;;;;;13.78;60.88;100310.22;10501599;28;20055;-61
2023/11/08 12:15:22;;;;;;;1.83;0.73;;;;;;;13.82;60.46;100292.59;10497563;28;20043;-62
2023/11/08 12:20:26;;;;;;;2.72;0.30;;;;;;;13.87;60.05;100294.69;10480898;28;20048;-62
2023/11/08 12:25:28;;;;;;;3.28;0.30;;;;;;;13.97;59.79;100297.88;10475382;28;20053;-61
2023/11/08 12:30:33;;;;;;;2.45;0.45;;;;;;;14.05;59.59;100292.28;10491338;28;20168;-61
2023/11/08 12:35:35;;;;;;;2.28;0.25;;;;;;;14.11;59.11;100282.56;10447946;28;20139;-60
2023/11/08 12:40:36;;;;;;;2.92;0.38;;;;;;;14.07;58.85;100284.81;10422234;28;20049;-62
2023/11/08 12:45:38;;;;;;;3.67;0.30;;;;;;;14.01;58.83;100288.31;10460661;28;20509;-61
2023/11/08 12:51:05;;;;;;;3.63;0.40;;;;;;;13.94;58.82;100284.78;10455200;28;20079;-61
2023/11/08 12:56:06;;;;;;;1.57;0.40;;;;;;;13.64;58.92;100282.28;10453112;28;20052;-61
2023/11/08 13:01:18;;;;;;;1.20;0.20;;;;;;;13.45;58.55;100283.00;10459375;28;20053;-62
2023/11/08 13:06:19;;;;;;;0.82;0.20;;;;;;;13.46;58.53;100269.28;10458727;28;20040;-63
2023/11/08 13:11:21;;;;;;;3.15;0.43;;;;;;;13.38;58.79;100269.44;10456097;28;20048;-61
2023/11/08 13:16:22;;;;;;;0.98;0.25;;;;;;;13.36;58.46;100270.66;10478461;28;20061;-61
2023/11/08 13:21:26;;;;;;;0.65;0.20;;;;;;;13.44;58.47;100267.81;10482010;28;20037;-62
2023/11/08 13:26:28;;;;;;;1.27;0.20;;;;;;;13.52;58.22;100262.25;10471999;28;20060;-62
2023/11/08 13:31:30;;;;;;;2.65;0.50;;;;;;;13.52;58.05;100264.13;10484137;28;20093;-62
2023/11/08 13:36:31;;;;;;;2.13;0.40;;;;;;;13.57;58.43;100258.97;10478014;28;20105;-63
2023/11/08 13:41:33;;;;;;;1.25;0.20;;;;;;;13.54;58.61;100262.06;10514230;28;20118;-62
2023/11/08 13:46:34;;;;;;;1.48;0.20;;;;;;;13.49;58.93;100262.66;10496878;28;20032;-63
2023/11/08 13:51:36;;;;;;;1.65;0.30;;;;;;;13.59;58.72;100256.91;10451569;22;20050;-86
2023/11/08 13:56:37;;;;;;;2.42;0.40;;;;;;;13.44;59.13;100259.72;10331412;28;20042;-83
2023/11/08 14:01:40;;;;;;;3.80;0.30;;;;;;;13.32;59.15;100262.13;10347135;28;20567;-85
2023/11/08 14:06:41;;;;;;;1.33;0.20;;;;;;;13.48;59.03;100247.50;10347541;28;20042;-86
2023/11/08 14:11:47;;;;;;;0.77;0.28;;;;;;;13.60;58.88;100236.97;10319399;28;20649;-83
2023/11/08 14:16:48;;;;;;;1.45;0.22;;;;;;;13.48;58.93;100221.31;10324544;28;20039;-85
2023/11/08 14:21:50;;;;;;;1.90;0.25;;;;;;;13.42;58.98;100229.38;10314868;28;20053;-86
2023/11/08 14:26:53;;;;;;;1.25;0.30;;;;;;;13.34;59.33;100238.47;10345132;28;20030;-85
2023/11/08 14:31:55;;;;;;;1.33;0.20;;;;;;;13.29;59.19;100230.97;10326728;28;20124;-83
2023/11/08 14:36:56;;;;;;;1.65;0.30;;;;;;;13.29;58.99;100233.66;10344837;28;20080;-85
2023/11/08 14:41:58;;;;;;;0.68;0.20;;;;;;;13.31;58.90;100232.63;10340141;28;20042;-83
2023/11/08 14:47:01;;;;;;;4.85;0.60;;;;;;;13.15;58.99;100214.81;10339416;28;20377;-85
2023/11/08 14:52:09;;;;;;;1.77;0.32;;;;;;;13.07;59.32;100207.69;10359796;28;20409;-86
2023/11/08 14:57:13;;;;;;;1.00;0.20;;;;;;;13.06;59.14;100200.66;10356583;28;20046;-85
2023/11/08 15:02:15;;;;;;;3.08;0.88;;;;;;;13.00;58.95;100196.88;10337648;28;20114;-83
2023/11/08 15:07:17;;;;;;;1.05;0.20;;;;;;;12.88;58.87;100204.66;10357080;28;20080;-85
2023/11/08 15:12:40;;;;;;;2.65;0.20;;;;;;;12.80;59.07;100194.00;10373677;28;20042;-85
2023/11/08 15:17:42;;;;;;;1.10;0.20;;;;;;;12.82;59.07;100188.44;10359038;28;20033;-86
2023/11/08 15:22:44;;;;;;;2.58;0.20;;;;;;;12.83;58.79;100190.06;10345257;28;20057;-85
2023/11/08 15:27:46;;;;;;;2.67;0.20;;;;;;;12.81;58.94;100181.34;10365562;28;20126;-85
2023/11/08 15:32:47;;;;;;;0.57;0.30;;;;;;;12.84;58.92;100181.78;10372056;28;20134;-84
2023/11/08 15:37:49;;;;;;;2.60;0.40;;;;;;;12.67;59.34;100156.13;10384347;28;20053;-84
2023/11/08 15:42:51;;;;;;;2.70;0.32;;;;;;;12.66;59.36;100160.69;10377158;28;20034;-86
2023/11/08 15:47:56;;;;;;;2.75;0.40;;;;;;;12.58;59.59;100159.97;10382870;28;20555;-79
2023/11/08 15:52:58;;;;;;;0.98;0.30;;;;;;;12.62;59.71;100145.94;10350103;28;20050;-82
2023/11/08 15:58:00;;;;;;;0.80;0.30;;;;;;;12.51;59.84;100135.66;10334119;28;20053;-82
2023/11/08 16:03:03;;;;;;;2.63;0.30;;;;;;;12.45;60.12;100139.13;10343850;28;20046;-82
2023/11/08 16:08:05;;;;;;;1.02;0.40;;;;;;;12.46;60.56;100132.72;10333451;28;20069;-84
2023/11/08 16:13:07;;;;;;;2.15;0.30;;;;;;;12.37;60.69;100126.63;10318953;28;20053;-80
2023/11/08 16:18:09;;;;;;;1.52;0.40;;;;;;;12.28;61.20;100119.69;10345897;28;20057;-85
2023/11/08 16:23:10;;;;;;;2.60;0.63;;;;;;;12.30;61.50;100114.94;10359052;28;20431;-82
2023/11/08 16:28:12;;;;;;;1.70;0.50;;;;;;;12.29;61.56;100111.41;10350673;28;20042;-88
2023/11/08 16:33:14;;;;;;;1.20;0.50;;;;;;;12.28;61.86;100101.69;10348616;28;20137;-87
2023/11/08 16:38:16;;;;;;;0.70;0.22;;;;;;;12.21;62.17;100095.38;10328074;28;20105;-79
2023/11/08 16:43:17;;;;;;;2.45;0.40;;;;;;;12.18;62.47;100094.94;10351383;28;20642;-79
2023/11/08 16:48:31;;;;;;;1.60;0.38;;;;;;;12.19;62.52;100092.03;10333884;28;20042;-84
2023/11/08 16:53:33;;;;;;;1.80;0.30;;;;;;;12.19;62.67;100099.31;10329969;28;20042;-82
2023/11/08 16:58:34;;;;;;;1.38;0.90;;;;;;;12.22;62.87;100098.91;10341823;28;20074;-80
2023/11/08 17:03:39;;;;;;;2.25;0.43;;;;;;;12.25;62.75;100099.34;10354287;28;20077;-83
2023/11/08 17:08:41;;;;;;;0.50;0.40;;;;;;;12.23;62.99;100092.50;10384879;28;20092;-81
2023/11/08 17:13:43;;;;;;;2.25;0.50;;;;;;;12.13;63.24;100076.66;10308014;28;20397;-79
2023/11/08 17:18:44;;;;;;;1.55;0.30;;;;;;;12.10;63.04;100072.50;10315377;28;20073;-80
2023/11/08 17:23:47;;;;;;;1.08;0.40;;;;;;;12.07;63.31;100070.16;10347284;28;20038;-79
2023/11/08 17:28:52;;;;;;;1.70;0.70;;;;;;;12.06;63.29;100073.88;10333375;28;20069;-84
2023/11/08 17:33:54;;;;;;;3.35;1.38;;;;;;;12.06;63.35;100059.59;10359538;28;20193;-82
2023/11/08 17:38:56;;;;;;;1.45;0.50;;;;;;;12.07;63.37;100045.09;10367353;28;20050;-83
2023/11/08 17:43:57;;;;;;;1.77;0.40;;;;;;;12.03;63.58;100049.22;10337402;28;20145;-84
2023/11/08 17:48:59;;;;;;;2.55;0.40;;;;;;;12.04;63.42;100042.78;10393334;28;20535;-83
2023/11/08 17:54:05;;;;;;;3.63;0.52;;;;;;;11.99;63.78;100043.38;10368748;28;20568;-83
2023/11/08 17:59:09;;;;;;;1.45;0.40;;;;;;;11.94;63.54;100053.03;10342854;28;20050;-84
2023/11/08 18:04:11;;;;;;;3.75;0.60;;;;;;;11.96;63.71;100054.50;10327405;28;20052;-84
2023/11/08 18:09:14;;;;;;;4.07;0.45;;;;;;;11.96;63.67;100059.06;10368806;28;20041;-84
2023/11/08 18:14:18;;;;;;;2.88;0.70;;;;;;;11.93;63.70;100046.84;10349631;28;20429;-80
2023/11/08 18:19:22;;;;;;;3.35;0.65;;;;;;;11.89;64.15;100026.69;10351960;28;20049;-85
2023/11/08 18:24:25;;;;;;;2.80;0.50;;;;;;;11.86;63.94;100025.16;10353704;28;20054;-82
2023/11/08 18:29:28;;;;;;;0.75;0.65;;;;;;;11.88;63.98;100017.72;10364430;28;20038;-78
2023/11/08 18:34:30;;;;;;;2.60;0.90;;;;;;;11.89;63.92;100014.06;10370486;28;20049;-80
2023/11/08 18:39:34;;;;;;;1.40;0.63;;;;;;;11.87;63.91;100015.25;10370114;28;20042;-78
2023/11/08 18:44:36;;;;;;;1.70;0.63;;;;;;;11.85;63.93;100020.00;10351920;28;20125;-79
2023/11/08 18:49:38;;;;;;;2.58;0.77;;;;;;;11.90;64.27;100022.97;10370945;28;20065;-78
2023/11/08 18:54:40;;;;;;;2.40;0.70;;;;;;;11.90;64.38;100020.28;10305320;28;20050;-78
2023/11/08 19:00:10;;;;;;;4.20;0.52;;;;;;;11.83;64.17;100017.50;10329671;28;20034;-78
2023/11/08 19:05:30;;;;;;;1.70;0.65;;;;;;;11.80;64.40;100017.03;10337589;28;20050;-81
2023/11/08 19:10:32;;;;;;;3.22;0.60;;;;;;;11.81;64.31;100010.59;10330927;28;20046;-79
2023/11/08 19:15:33;;;;;;;0.57;0.50;;;;;;;11.81;64.49;99997.16;10349659;28;20490;-77
2023/11/08 19:20:35;;;;;;;2.70;0.73;;;;;;;11.84;63.98;99996.78;10337959;28;20046;-78
2023/11/08 19:25:36;;;;;;;2.22;0.50;;;;;;;11.86;64.41;99997.41;10338352;28;20049;-83
2023/11/08 19:30:38;;;;;;;4.30;1.90;;;;;;;11.92;64.41;99979.69;10334647;28;20050;-83
2023/11/08 19:35:41;;;;;;;7.38;1.90;;;;;;;11.92;64.12;99979.69;10333982;28;20042;-82
2023/11/08 19:40:44;;;;;;;2.40;0.75;;;;;;;11.90;64.30;99971.78;10324462;28;20077;-84
2023/11/08 19:45:46;;;;;;;3.53;0.60;;;;;;;11.92;64.26;99964.34;10354066;28;20038;-86
2023/11/08 19:50:48;;;;;;;1.58;0.95;;;;;;;11.93;64.43;99960.63;10332348;28;20671;-85
2023/11/08 19:55:50;;;;;;;1.10;0.70;;;;;;;11.95;64.28;99955.88;10379451;28;20050;-83
2023/11/08 20:00:52;;;;;;;1.95;0.50;;;;;;;11.93;64.09;99959.78;10374204;28;20493;-85
2023/11/08 20:05:53;;;;;;;4.57;0.63;;;;;;;11.95;64.08;99961.28;10347902;28;20104;-82
2023/11/08 20:10:55;;;;;;;1.50;0.68;;;;;;;12.00;64.08;99950.72;10341289;28;20069;-83
2023/11/08 20:15:57;;;;;;;4.97;1.85;;;;;;;11.90;64.33;99953.75;10346155;28;20049;-85
2023/11/08 20:20:59;;;;;;;1.23;0.70;;;;;;;11.93;64.27;99951.69;10326366;28;20057;-86
2023/11/08 20:26:01;;;;;;;2.47;0.77;;;;;;;11.92;64.11;99934.72;10347862;28;20046;-81
2023/11/08 20:31:04;;;;;;;3.63;0.88;;;;;;;12.00;64.31;99948.03;10363652;28;20121;-84
2023/11/08 20:36:06;;;;;;;2.42;0.77;;;;;;;12.03;63.62;99936.88;10329074;28;20081;-79
2023/11/08 20:41:13;;;;;;;6.13;1.30;;;;;;;12.04;63.26;99937.72;10319141;28;20061;-78
2023/11/08 20:46:16;;;;;;;4.10;1.27;;;;;;;12.01;63.89;99925.47;10317776;28;20140;-79
2023/11/08 20:51:19;;;;;;;2.70;0.70;;;;;;;12.03;63.35;99920.72;10334157;28;20058;-79
2023/11/08 20:56:23;;;;;;;1.63;0.70;;;;;;;12.01;63.76;99912.00;10344986;28;20046;-79
2023/11/08 21:01:25;;;;;;;1.15;0.60;;;;;;;11.92;63.97;99906.97;10327989;28;20038;-79
2023/11/08 21:06:27;;;;;;;1.23;0.50;;;;;;;11.98;63.21;99912.38;10345119;28;20050;-79
2023/11/08 21:11:29;;;;;;;1.88;0.50;;;;;;;11.96;63.16;99902.84;10335653;28;20181;-79
2023/11/08 21:16:31;;;;;;;1.00;0.68;;;;;;;11.96;62.96;99897.47;10328655;28;20409;-79
2023/11/08 21:21:32;;;;;;;2.25;0.60;;;;;;;11.88;63.20;99883.06;10344580;28;20589;-80
2023/11/08 21:26:35;;;;;;;5.03;0.90;;;;;;;11.81;63.23;99890.28;10343614;28;20171;-79
2023/11/08 21:31:37;;;;;;;3.45;0.70;;;;;;;11.72;63.32;99880.66;10341034;28;20556;-79
2023/11/08 21:36:39;;;;;;;1.27;1.00;;;;;;;11.63;63.56;99880.00;10325970;28;20053;-79
2023/11/08 21:41:45;;;;;;;4.15;0.90;;;;;;;11.59;63.30;99878.72;10334521;28;20129;-80
2023/11/08 21:46:47;;;;;;;3.85;1.10;;;;;;;11.53;63.54;99868.69;10352852;28;20054;-77
2023/11/08 21:51:48;;;;;;;2.30;0.75;;;;;;;11.52;63.36;99869.75;10362991;28;20062;-78
2023/11/08 21:56:51;;;;;;;2.38;1.10;;;;;;;11.54;63.52;99867.69;10366974;28;20046;-75
2023/11/08 22:01:53;;;;;;;6.45;2.28;;;;;;;11.52;63.21;99859.81;10379238;28;20159;-75
2023/11/08 22:06:55;;;;;;;4.43;1.95;;;;;;;11.58;63.01;99846.59;10369908;28;20516;-77
2023/11/08 22:11:56;;;;;;;7.72;0.80;;;;;;;11.71;62.99;99831.38;10386246;28;20042;-76
2023/11/08 22:16:58;;;;;;;6.32;1.65;;;;;;;11.76;62.59;99824.56;10370395;28;20074;-77
2023/11/08 22:22:00;;;;;;;4.65;0.63;;;;;;;11.72;63.06;99824.13;10377738;28;20060;-78
2023/11/08 22:27:03;;;;;;;2.92;0.68;;;;;;;11.70;63.32;99821.63;10384900;28;20052;-76
2023/11/08 22:32:05;;;;;;;4.93;0.80;;;;;;;11.69;62.51;99828.06;10354721;28;20053;-75
2023/11/08 22:37:07;;;;;;;2.40;0.50;;;;;;;11.61;62.88;99830.03;10347190;28;20054;-76
2023/11/08 22:42:09;;;;;;;4.15;0.85;;;;;;;11.50;63.37;99826.03;10370877;28;20046;-75
2023/11/08 22:47:10;;;;;;;3.17;0.60;;;;;;;11.48;63.10;99814.63;10340102;28;20076;-75
2023/11/08 22:52:12;;;;;;;1.80;0.60;;;;;;;11.38;63.23;99814.16;10331922;28;20501;-77
2023/11/08 22:57:13;;;;;;;2.45;0.60;;;;;;;11.31;63.73;99820.31;10325018;28;20046;-78
2023/11/08 23:02:16;;;;;;;2.92;0.57;;;;;;;11.33;63.05;99814.72;10334693;28;20105;-78
2023/11/08 23:07:17;;;;;;;1.38;0.60;;;;;;;11.23;63.39;99806.16;10328178;28;20093;-78
2023/11/08 23:12:19;;;;;;;0.95;0.55;;;;;;;11.19;63.57;99800.31;10332389;28;20078;-78
2023/11/08 23:17:21;;;;;;;3.50;0.80;;;;;;;11.14;63.17;99793.84;10333394;28;20061;-80